createdAt,value
2023-02-16T00:02:03.354Z,41.67
2023-02-16T00:04:34.526Z,40.63
2023-02-16T00:07:03.708Z,42.10
2023-02-16T00:09:32.206Z,40.60
2023-02-16T00:12:17.877Z,40.85
2023-02-16T00:14:45.924Z,41.25
2023-02-16T00:17:13.729Z,41.22
2023-02-16T00:19:43.223Z,43.20
2023-02-16T00:22:12.900Z,42.80
2023-02-16T00:24:41.097Z,41.40
2023-02-16T00:27:14.894Z,42.13
2023-02-16T00:29:44.808Z,42.53
2023-02-16T00:32:14.882Z,41.55
2023-02-16T00:34:45.786Z,41.17
2023-02-16T00:37:17.719Z,42.35
2023-02-16T00:39:46.344Z,41.70
2023-02-16T00:42:18.815Z,42.08
2023-02-16T00:44:48.412Z,42.33
2023-02-16T00:47:20.182Z,42.05
2023-02-16T00:49:51.101Z,42.47
2023-02-16T00:52:31.469Z,41.83
2023-02-16T00:55:00.897Z,42.05
2023-02-16T00:57:29.574Z,42.75
2023-02-16T01:00:02.837Z,42.90
2023-02-16T01:02:31.009Z,42.38
2023-02-16T01:05:00.418Z,42.78
2023-02-16T01:07:47.049Z,41.45
2023-02-16T01:10:33.235Z,41.70
2023-02-16T01:13:01.587Z,42.05
2023-02-16T01:15:29.633Z,40.97
2023-02-16T01:18:00.425Z,41.38
2023-02-16T01:20:29.629Z,41.05
2023-02-16T01:22:58.810Z,42.00
2023-02-16T01:25:27.112Z,42.13
2023-02-16T01:27:55.032Z,41.92
2023-02-16T01:30:28.999Z,40.60
2023-02-16T01:32:57.739Z,42.88
2023-02-16T01:35:30.501Z,41.90
2023-02-16T01:38:00.191Z,42.45
2023-02-16T01:40:37.265Z,41.63
2023-02-16T01:43:10.346Z,41.13
2023-02-16T01:45:42.194Z,41.67
2023-02-16T01:48:20.973Z,42.63
2023-02-16T01:50:55.795Z,42.53
2023-02-16T01:53:30.395Z,42.95
2023-02-16T01:56:02.291Z,42.33
2023-02-16T01:58:36.980Z,43.05
2023-02-16T02:01:41.530Z,42.35
2023-02-16T02:04:30.844Z,43.72
2023-02-16T02:06:58.963Z,42.28
2023-02-16T02:09:35.198Z,41.28
2023-02-16T02:12:09.428Z,42.17
2023-02-16T02:14:41.409Z,42.53
2023-02-16T02:17:13.857Z,44.47
2023-02-16T02:19:49.197Z,41.80
2023-02-16T02:22:53.133Z,41.72
2023-02-16T02:25:43.366Z,42.72
2023-02-16T02:28:20.377Z,42.17
2023-02-16T02:30:51.062Z,43.78
2023-02-16T02:33:28.212Z,42.17
2023-02-16T02:36:00.358Z,42.40
2023-02-16T02:38:32.698Z,41.45
2023-02-16T02:41:05.526Z,43.00
2023-02-16T02:43:39.780Z,41.50
2023-02-16T02:46:11.831Z,43.13
2023-02-16T02:48:41.263Z,41.50
2023-02-16T02:51:33.939Z,42.92
2023-02-16T02:54:26.693Z,43.28
2023-02-16T02:57:21.835Z,43.35
2023-02-16T03:00:14.484Z,40.35
2023-02-16T03:02:44.182Z,42.20
2023-02-16T03:05:13.304Z,42.22
2023-02-16T03:07:49.716Z,41.53
2023-02-16T03:10:39.008Z,43.00
2023-02-16T03:13:10.188Z,41.80
2023-02-16T03:15:40.208Z,43.22
2023-02-16T03:18:27.677Z,41.65
2023-02-16T03:21:15.711Z,42.28
2023-02-16T03:24:01.651Z,41.47
2023-02-16T03:26:47.558Z,40.25
2023-02-16T03:29:21.463Z,41.88
2023-02-16T03:34:21.822Z,39.25
2023-02-16T03:36:52.623Z,41.53
2023-02-16T03:39:21.116Z,41.28
2023-02-16T03:41:51.335Z,41.80
2023-02-16T03:44:19.630Z,41.45
2023-02-16T03:46:49.522Z,40.90
2023-02-16T03:49:19.561Z,40.78
2023-02-16T03:51:47.764Z,42.38
2023-02-16T03:54:15.704Z,41.50
2023-02-16T03:56:43.797Z,41.60
2023-02-16T03:59:11.847Z,41.75
2023-02-16T04:01:40.527Z,43.75
2023-02-16T04:04:08.570Z,41.05
2023-02-16T04:06:40.327Z,40.90
2023-02-16T04:09:11.295Z,42.03
2023-02-16T04:11:56.893Z,42.85
2023-02-16T04:14:24.852Z,41.47
2023-02-16T04:16:52.808Z,41.58
2023-02-16T04:19:20.943Z,42.53
2023-02-16T04:21:50.101Z,43.65
2023-02-16T04:24:18.081Z,43.53
2023-02-16T04:26:45.936Z,42.85
2023-02-16T04:29:14.710Z,43.70
2023-02-16T04:31:42.749Z,42.58
2023-02-16T04:34:10.870Z,41.90
2023-02-16T04:36:38.724Z,42.25
2023-02-16T04:39:11.054Z,43.78
2023-02-16T04:41:38.985Z,42.20
2023-02-16T04:44:07.177Z,44.45
2023-02-16T04:46:35.167Z,43.20
2023-02-16T04:49:03.665Z,44.33
2023-02-16T04:51:31.624Z,43.45
2023-02-16T04:53:59.487Z,43.03
2023-02-16T04:56:30.121Z,43.60
2023-02-16T04:58:58.098Z,43.17
2023-02-16T05:01:28.199Z,43.60
2023-02-16T05:03:56.399Z,45.80
2023-02-16T05:06:24.239Z,44.35
2023-02-16T05:08:52.071Z,43.20
2023-02-16T05:11:37.312Z,44.33
2023-02-16T05:14:24.206Z,44.85
2023-02-16T05:16:52.462Z,44.28
2023-02-16T05:19:20.363Z,43.92
2023-02-16T05:21:50.604Z,44.30
2023-02-16T05:24:18.847Z,44.08
2023-02-16T05:26:46.764Z,44.67
2023-02-16T05:29:16.049Z,45.67
2023-02-16T05:31:44.072Z,45.22
2023-02-16T05:34:12.232Z,45.13
2023-02-16T05:36:40.192Z,45.95
2023-02-16T05:39:08.608Z,45.80
2023-02-16T05:41:36.402Z,45.17
2023-02-16T05:44:05.176Z,47.35
2023-02-16T05:46:38.061Z,47.45
2023-02-16T05:49:08.645Z,45.13
2023-02-16T05:51:37.386Z,46.83
2023-02-16T05:54:05.893Z,46.35
2023-02-16T05:56:33.790Z,46.95
2023-02-16T05:59:02.127Z,46.65
2023-02-16T06:01:30.072Z,46.08
2023-02-16T06:03:59.358Z,46.33
2023-02-16T06:06:27.406Z,46.67
2023-02-16T06:08:55.166Z,46.00
2023-02-16T06:11:38.713Z,47.85
2023-02-16T06:14:09.317Z,46.20
2023-02-16T06:16:38.798Z,46.97
2023-02-16T06:19:09.621Z,47.50
2023-02-16T06:21:39.963Z,46.78
2023-02-16T06:24:08.529Z,45.78
2023-02-16T06:26:36.646Z,47.00
2023-02-16T06:29:04.888Z,46.35
2023-02-16T06:31:36.655Z,44.45
2023-02-16T06:34:05.542Z,48.35
2023-02-16T06:36:35.065Z,44.80
2023-02-16T06:39:03.240Z,46.53
2023-02-16T06:41:37.933Z,45.83
2023-02-16T06:44:08.777Z,47.53
2023-02-16T06:46:36.779Z,48.03
2023-02-16T06:49:05.198Z,46.35
2023-02-16T06:51:34.678Z,46.10
2023-02-16T06:54:02.422Z,46.50
2023-02-16T06:56:30.641Z,44.58
2023-02-16T06:58:58.509Z,46.05
2023-02-16T07:01:26.452Z,44.72
2023-02-16T07:03:55.326Z,46.55
2023-02-16T07:06:25.167Z,47.60
2023-02-16T07:08:57.146Z,44.55
2023-02-16T07:11:25.050Z,46.10
2023-02-16T07:13:53.035Z,46.63
2023-02-16T07:16:22.244Z,44.28
2023-02-16T07:18:50.281Z,46.50
2023-02-16T07:21:18.070Z,44.85
2023-02-16T07:23:45.849Z,46.13
2023-02-16T07:26:15.244Z,45.90
2023-02-16T07:28:43.253Z,46.58
2023-02-16T07:31:12.494Z,44.40
2023-02-16T07:33:40.991Z,45.10
2023-02-16T07:36:10.323Z,44.92
2023-02-16T07:38:39.036Z,43.35
2023-02-16T07:41:09.627Z,46.25
2023-02-16T07:43:39.765Z,45.60
2023-02-16T07:46:07.639Z,44.45
2023-02-16T07:48:35.677Z,45.53
2023-02-16T07:51:04.128Z,45.92
2023-02-16T07:53:32.796Z,45.00
2023-02-16T07:56:00.833Z,45.70
2023-02-16T07:58:28.843Z,42.67
2023-02-16T08:01:07.240Z,43.58
2023-02-16T08:03:35.088Z,44.42
2023-02-16T08:06:03.946Z,44.17
2023-02-16T08:08:32.076Z,44.33
2023-02-16T08:11:00.248Z,45.08
2023-02-16T08:13:28.107Z,44.20
2023-02-16T08:15:56.779Z,43.83
2023-02-16T08:18:26.019Z,43.70
2023-02-16T08:21:03.673Z,44.50
2023-02-16T08:23:32.549Z,44.78
2023-02-16T08:26:00.342Z,44.90
2023-02-16T08:28:31.772Z,43.70
2023-02-16T08:31:04.692Z,44.70
2023-02-16T08:33:35.208Z,44.75
2023-02-16T08:36:03.859Z,44.17
2023-02-16T08:38:34.428Z,44.85
2023-02-16T08:41:02.621Z,43.35
2023-02-16T08:43:31.070Z,42.58
2023-02-16T08:45:59.453Z,45.00
2023-02-16T08:48:28.873Z,41.00
2023-02-16T08:50:58.137Z,43.90
2023-02-16T08:53:28.218Z,43.33
2023-02-16T08:55:56.674Z,42.58
2023-02-16T08:58:25.854Z,43.65
2023-02-16T09:00:53.891Z,43.38
2023-02-16T09:03:21.753Z,43.55
2023-02-16T09:05:51.423Z,43.63
2023-02-16T09:08:21.653Z,42.33
2023-02-16T09:10:49.419Z,43.05
2023-02-16T09:13:17.417Z,44.55
2023-02-16T09:15:45.462Z,42.90
2023-02-16T09:18:14.377Z,42.78
2023-02-16T09:20:46.414Z,42.95
2023-02-16T09:23:17.785Z,45.42
2023-02-16T09:25:47.077Z,43.35
2023-02-16T09:28:16.100Z,43.92
2023-02-16T09:30:44.721Z,45.08
2023-02-16T09:33:12.978Z,44.03
2023-02-16T09:35:43.045Z,42.80
2023-02-16T09:38:10.937Z,44.22
2023-02-16T09:40:38.827Z,43.78
2023-02-16T09:43:14.467Z,44.30
2023-02-16T09:45:44.203Z,44.53
2023-02-16T09:48:23.446Z,44.97
2023-02-16T09:50:54.905Z,43.60
2023-02-16T09:53:29.346Z,44.25
2023-02-16T09:56:04.170Z,47.40
2023-02-16T09:58:39.020Z,47.00
2023-02-16T10:01:18.436Z,46.63
2023-02-16T10:03:54.233Z,46.80
2023-02-16T10:06:29.353Z,46.80
2023-02-16T10:09:00.638Z,45.50
2023-02-16T10:11:46.793Z,46.53
2023-02-16T10:14:23.350Z,48.83
2023-02-16T10:16:56.400Z,44.80
2023-02-16T10:19:28.979Z,46.88
2023-02-16T10:21:59.997Z,45.55
2023-02-16T10:24:29.550Z,44.95
2023-02-16T10:27:03.486Z,45.45
2023-02-16T10:29:33.969Z,46.47
2023-02-16T10:32:11.830Z,47.08
2023-02-16T10:34:49.930Z,47.17
2023-02-16T10:37:29.659Z,46.28
2023-02-16T10:40:13.809Z,47.60
2023-02-16T10:42:47.319Z,45.58
2023-02-16T10:45:26.297Z,46.67
2023-02-16T10:47:55.696Z,46.30
2023-02-16T10:50:27.277Z,45.92
2023-02-16T10:52:57.841Z,47.25
2023-02-16T10:55:26.378Z,47.50
2023-02-16T10:57:56.645Z,46.63
2023-02-16T11:00:31.758Z,45.08
2023-02-16T11:03:03.184Z,47.35
2023-02-16T11:05:34.424Z,45.53
2023-02-16T11:08:02.689Z,63.78
2023-02-16T11:10:39.727Z,53.83
2023-02-16T11:13:23.731Z,47.92
2023-02-16T11:15:56.173Z,46.90
2023-02-16T11:18:34.234Z,48.03
2023-02-16T11:21:03.477Z,46.85
2023-02-16T11:23:32.631Z,49.60
2023-02-16T11:26:03.264Z,46.67
2023-02-16T11:28:36.358Z,47.85
2023-02-16T11:31:17.802Z,48.60
2023-02-16T11:33:58.011Z,46.58
2023-02-16T11:36:31.276Z,48.60
2023-02-16T11:39:01.716Z,49.42
2023-02-16T11:41:30.166Z,49.17
2023-02-16T11:43:58.584Z,48.03
2023-02-16T11:46:28.059Z,48.13
2023-02-16T11:48:56.769Z,49.30
2023-02-16T11:51:34.729Z,47.85
2023-02-16T11:54:05.726Z,45.72
2023-02-16T11:56:34.922Z,45.15
2023-02-16T11:59:08.728Z,46.25
2023-02-16T12:02:04.737Z,46.05
2023-02-16T12:04:45.322Z,43.85
2023-02-16T12:07:20.335Z,46.65
2023-02-16T12:09:54.766Z,50.05
2023-02-16T12:12:33.202Z,47.90
2023-02-16T12:15:05.622Z,47.40
2023-02-16T12:17:54.985Z,47.47
2023-02-16T12:20:36.568Z,48.15
2023-02-16T12:23:13.808Z,43.45
2023-02-16T12:25:50.120Z,43.28
2023-02-16T12:28:23.609Z,41.65
2023-02-16T12:31:09.705Z,43.58
2023-02-16T12:33:43.652Z,42.38
2023-02-16T12:36:44.672Z,43.78
2023-02-16T12:39:19.332Z,42.67
2023-02-16T12:42:00.676Z,41.45
2023-02-16T12:44:33.800Z,41.92
2023-02-16T12:47:03.636Z,43.97
2023-02-16T12:49:43.203Z,44.67
2023-02-16T12:52:27.358Z,42.58
2023-02-16T12:54:59.099Z,43.53
2023-02-16T12:57:30.848Z,43.15
2023-02-16T13:00:02.357Z,44.80
2023-02-16T13:02:35.299Z,41.72
2023-02-16T13:05:10.021Z,42.60
2023-02-16T13:07:40.883Z,41.97
2023-02-16T13:10:18.440Z,43.72
2023-02-16T13:12:51.286Z,41.03
2023-02-16T13:15:22.025Z,42.47
2023-02-16T13:17:51.510Z,42.60
2023-02-16T13:20:23.080Z,40.95
2023-02-16T13:23:35.588Z,41.03
2023-02-16T13:26:14.734Z,40.33
2023-02-16T13:29:12.117Z,42.65
2023-02-16T13:31:48.839Z,37.85
2023-02-16T13:34:34.384Z,41.00
2023-02-16T13:37:24.080Z,38.47
2023-02-16T13:40:31.223Z,37.08
2023-02-16T13:43:14.285Z,35.83
2023-02-16T13:45:45.551Z,37.55
2023-02-16T13:48:22.419Z,34.83
2023-02-16T13:50:57.704Z,36.42
2023-02-16T13:53:36.586Z,34.47
2023-02-16T13:56:24.494Z,33.85
2023-02-16T13:58:53.815Z,34.67
2023-02-16T14:01:39.909Z,33.60
2023-02-16T14:04:13.562Z,34.50
2023-02-16T14:06:42.879Z,32.72
2023-02-16T14:09:50.730Z,32.20
2023-02-16T14:12:21.254Z,31.45
2023-02-16T14:15:02.926Z,31.13
2023-02-16T14:17:33.733Z,32.90
2023-02-16T14:20:05.422Z,30.65
2023-02-16T14:22:39.237Z,32.30
2023-02-16T14:25:33.239Z,31.85
2023-02-16T14:28:02.340Z,31.00
2023-02-16T14:30:33.076Z,30.38
2023-02-16T14:33:05.630Z,32.65
2023-02-16T14:35:35.729Z,28.80
2023-02-16T14:38:05.759Z,31.52
2023-02-16T14:40:44.817Z,28.08
2023-02-16T14:43:21.684Z,28.52
2023-02-16T14:46:20.405Z,29.10
2023-02-16T14:49:23.897Z,28.73
2023-02-16T14:52:16.149Z,28.10
2023-02-16T14:55:04.108Z,28.48
2023-02-16T14:57:35.339Z,27.60
2023-02-16T15:00:08.406Z,28.27
2023-02-16T15:02:40.645Z,28.35
2023-02-16T15:05:18.821Z,27.15
2023-02-16T15:07:48.265Z,26.95
2023-02-16T15:10:18.555Z,26.95
2023-02-16T15:12:49.186Z,29.75
2023-02-16T15:15:21.001Z,28.83
2023-02-16T15:17:51.344Z,29.98
2023-02-16T15:20:23.287Z,30.00
2023-02-16T15:22:57.312Z,36.35
2023-02-16T15:25:28.281Z,25.63
2023-02-16T15:28:01.888Z,27.13
2023-02-16T15:30:31.610Z,27.33
2023-02-16T15:33:01.848Z,25.65
2023-02-16T15:35:34.689Z,25.60
2023-02-16T15:38:09.382Z,28.13
2023-02-16T15:40:37.832Z,27.15
2023-02-16T15:43:16.727Z,28.70
2023-02-16T15:45:50.259Z,28.48
2023-02-16T15:48:24.822Z,36.65
2023-02-16T15:50:54.896Z,29.83
2023-02-16T15:53:34.892Z,24.42
2023-02-16T15:56:05.355Z,24.38
2023-02-16T15:58:34.857Z,24.85
2023-02-16T16:01:04.400Z,23.63
2023-02-16T16:03:32.723Z,23.50
2023-02-16T16:06:04.947Z,22.73
2023-02-16T16:08:33.560Z,26.00
2023-02-16T16:11:01.543Z,27.15
2023-02-16T16:13:31.291Z,24.55
2023-02-16T16:16:04.693Z,24.52
2023-02-16T16:18:39.774Z,23.80
2023-02-16T16:21:15.044Z,25.95
2023-02-16T16:23:59.288Z,24.33
2023-02-16T16:26:28.886Z,24.67
2023-02-16T16:28:56.947Z,23.27
2023-02-16T16:31:47.651Z,25.15
2023-02-16T16:34:33.076Z,27.73
2023-02-16T16:37:02.757Z,27.13
2023-02-16T16:39:32.555Z,26.67
2023-02-16T16:42:24.852Z,27.08
2023-02-16T16:45:06.143Z,29.05
2023-02-16T16:47:41.222Z,28.45
2023-02-16T16:50:31.725Z,26.58
2023-02-16T16:52:59.807Z,35.28
2023-02-16T16:55:33.673Z,29.48
2023-02-16T16:58:03.410Z,29.23
2023-02-16T17:00:36.891Z,35.47
2023-02-16T17:03:08.849Z,32.80
2023-02-16T17:05:39.599Z,31.17
2023-02-16T17:08:07.801Z,29.45
2023-02-16T17:10:36.964Z,31.88
2023-02-16T17:13:05.105Z,30.65
2023-02-16T17:15:36.749Z,32.20
2023-02-16T17:18:05.875Z,34.13
2023-02-16T17:20:35.397Z,35.13
2023-02-16T17:23:06.329Z,34.13
2023-02-16T17:25:36.010Z,34.17
2023-02-16T17:28:04.946Z,33.45
2023-02-16T17:30:33.461Z,35.55
2023-02-16T17:33:01.516Z,36.33
2023-02-16T17:35:30.422Z,34.58
2023-02-16T17:38:00.100Z,37.00
2023-02-16T17:40:28.155Z,33.63
2023-02-16T17:42:57.495Z,32.45
2023-02-16T17:45:25.359Z,32.55
2023-02-16T17:47:53.890Z,33.20
2023-02-16T17:50:22.370Z,33.80
2023-02-16T17:52:50.312Z,35.20
2023-02-16T17:55:20.019Z,32.75
2023-02-16T17:57:47.944Z,33.40
2023-02-16T18:00:21.497Z,32.70
2023-02-16T18:02:49.774Z,32.90
2023-02-16T18:05:19.935Z,32.60
2023-02-16T18:07:47.778Z,33.03
2023-02-16T18:10:21.113Z,33.75
2023-02-16T18:12:50.421Z,33.05
2023-02-16T18:15:18.826Z,33.25
2023-02-16T18:17:50.745Z,33.47
2023-02-16T18:20:19.952Z,32.15
2023-02-16T18:22:48.320Z,32.90
2023-02-16T18:25:17.112Z,33.95
2023-02-16T18:27:47.872Z,41.10
2023-02-16T18:30:17.024Z,36.70
2023-02-16T18:32:46.132Z,33.78
2023-02-16T18:35:15.297Z,33.60
2023-02-16T18:37:43.438Z,33.72
2023-02-16T18:40:17.311Z,35.10
2023-02-16T18:42:47.281Z,33.28
2023-02-16T18:45:15.658Z,38.72
2023-02-16T18:47:45.209Z,37.50
2023-02-16T18:50:13.561Z,35.28
2023-02-16T18:52:43.411Z,37.03
2023-02-16T18:55:12.347Z,37.15
2023-02-16T18:57:40.575Z,36.13
2023-02-16T19:00:15.159Z,35.85
2023-02-16T19:02:44.230Z,36.45
2023-02-16T19:05:13.292Z,37.58
2023-02-16T19:07:41.279Z,37.10
2023-02-16T19:10:10.907Z,36.25
2023-02-16T19:12:39.887Z,35.65
2023-02-16T19:15:10.333Z,35.55
2023-02-16T19:17:38.853Z,36.17
2023-02-16T19:20:09.700Z,35.88
2023-02-16T19:22:38.064Z,36.60
2023-02-16T19:25:06.633Z,36.55
2023-02-16T19:27:34.775Z,35.75
2023-02-16T19:30:02.881Z,36.03
2023-02-16T19:32:32.108Z,35.00
2023-02-16T19:35:00.023Z,34.63
2023-02-16T19:37:27.947Z,34.55
2023-02-16T19:39:56.041Z,34.70
2023-02-16T19:42:24.428Z,33.38
2023-02-16T19:44:52.538Z,31.75
2023-02-16T19:47:20.683Z,32.92
2023-02-16T19:49:54.435Z,30.33
2023-02-16T19:52:23.247Z,32.38
2023-02-16T19:54:52.098Z,32.67
2023-02-16T19:57:20.198Z,32.17
2023-02-16T19:59:49.534Z,31.95
2023-02-16T20:02:17.947Z,31.08
2023-02-16T20:04:46.875Z,30.98
2023-02-16T20:07:16.274Z,30.92
2023-02-16T20:09:44.206Z,30.73
2023-02-16T20:12:15.597Z,31.83
2023-02-16T20:14:45.334Z,29.60
2023-02-16T20:17:13.288Z,30.08
2023-02-16T20:19:41.691Z,30.70
2023-02-16T20:22:10.123Z,30.48
2023-02-16T20:24:41.208Z,30.40
2023-02-16T20:27:09.753Z,32.63
2023-02-16T20:29:37.935Z,30.30
2023-02-16T20:32:06.881Z,32.75
2023-02-16T20:34:34.960Z,33.85
2023-02-16T20:37:03.696Z,32.17
2023-02-16T20:39:31.517Z,31.95
2023-02-16T20:42:00.947Z,33.88
2023-02-16T20:44:28.733Z,33.67
2023-02-16T20:46:57.020Z,33.90
2023-02-16T20:49:26.267Z,33.33
2023-02-16T20:51:54.734Z,34.53
2023-02-16T20:54:22.584Z,34.35
2023-02-16T20:56:50.347Z,35.28
2023-02-16T20:59:19.474Z,34.08
2023-02-16T21:01:52.159Z,35.40
2023-02-16T21:04:20.801Z,33.40
2023-02-16T21:06:48.743Z,32.40
2023-02-16T21:09:17.160Z,33.35
2023-02-16T21:11:45.097Z,32.25
2023-02-16T21:14:13.717Z,32.75
2023-02-16T21:16:43.646Z,34.78
2023-02-16T21:19:22.444Z,33.65
2023-02-16T21:21:52.006Z,31.35
2023-02-16T21:24:20.078Z,32.97
2023-02-16T21:26:48.228Z,33.50
2023-02-16T21:29:18.352Z,32.10
2023-02-16T21:31:50.419Z,32.47
2023-02-16T21:34:18.783Z,30.48
2023-02-16T21:36:46.635Z,28.65
2023-02-16T21:39:14.985Z,28.70
2023-02-16T21:41:41.782Z,29.77
2023-02-16T21:44:11.714Z,26.52
2023-02-16T21:46:41.241Z,26.45
2023-02-16T21:49:12.462Z,24.75
2023-02-16T21:51:41.408Z,23.75
2023-02-16T21:54:09.893Z,22.40
2023-02-16T21:56:41.483Z,21.20
2023-02-16T21:59:13.689Z,21.40
2023-02-16T22:01:43.342Z,19.75
2023-02-16T22:04:15.214Z,18.63
2023-02-16T22:06:45.822Z,18.35
2023-02-16T22:09:15.377Z,17.27
2023-02-16T22:11:43.681Z,16.85
2023-02-16T22:14:12.172Z,16.50
2023-02-16T22:16:40.627Z,15.15
2023-02-16T22:19:10.193Z,15.02
2023-02-16T22:21:41.230Z,14.07
2023-02-16T22:24:09.612Z,14.15
2023-02-16T22:26:37.491Z,14.43
2023-02-16T22:29:07.199Z,15.75
2023-02-16T22:31:35.615Z,15.38
2023-02-16T22:34:05.350Z,14.60
2023-02-16T22:36:34.340Z,14.88
2023-02-16T22:39:03.638Z,14.85
2023-02-16T22:41:31.586Z,14.82
2023-02-16T22:44:00.268Z,14.75
2023-02-16T22:46:29.471Z,14.45
2023-02-16T22:48:58.508Z,12.90
2023-02-16T22:51:27.856Z,14.00
2023-02-16T22:53:58.154Z,13.50
2023-02-16T22:56:28.268Z,13.52
2023-02-16T22:58:57.798Z,12.80
2023-02-16T23:01:27.148Z,12.38
2023-02-16T23:03:57.585Z,12.93
2023-02-16T23:06:27.414Z,12.15
2023-02-16T23:08:57.124Z,12.15
2023-02-16T23:11:25.883Z,12.57
2023-02-16T23:13:55.236Z,13.00
2023-02-16T23:16:25.457Z,14.38
2023-02-16T23:18:55.350Z,14.15
2023-02-16T23:21:24.988Z,15.10
2023-02-16T23:23:54.162Z,15.43
2023-02-16T23:26:24.007Z,15.63
2023-02-16T23:28:53.087Z,15.00
2023-02-16T23:31:23.237Z,16.10
2023-02-16T23:33:52.212Z,16.10
2023-02-16T23:36:20.336Z,16.30
2023-02-16T23:38:49.482Z,17.30
2023-02-16T23:41:17.595Z,16.27
2023-02-16T23:43:45.671Z,17.77
2023-02-16T23:46:13.954Z,17.92
2023-02-16T23:48:44.557Z,17.98
2023-02-16T23:51:12.393Z,18.17
2023-02-16T23:53:44.239Z,19.75
2023-02-16T23:56:14.729Z,19.13
2023-02-16T23:58:46.218Z,18.73
